Time;durP1;ratioP1;P1;durP2;ratioP2;P2;SDS_P1;SDS_P2;PMS_P1;PMS_P2;Temp;Humidity;BMP_temperature;BMP_pressure;BME280_temperature;BME280_humidity;BME280_pressure;Samples;Min_cycle;Max_cycle;Signal;HPM_P1;HPM_P2
2022/07/13 00:00:55;;;;;;;1.27;0.83;;;13.40;99.90;;;;;;5092146;28;20202;-68
2022/07/13 00:03:22;;;;;;;2.13;0.80;;;13.60;99.90;;;;;;5075004;28;20172;-66
2022/07/13 00:05:49;;;;;;;0.70;0.67;;;14.00;99.90;;;;;;5093220;28;20645;-67
2022/07/13 00:08:17;;;;;;;2.60;0.70;;;14.00;99.90;;;;;;5093271;28;20193;-68
2022/07/13 00:10:44;;;;;;;1.00;0.60;;;14.10;99.90;;;;;;5093526;28;20194;-67
2022/07/13 00:13:12;;;;;;;1.83;0.70;;;14.20;99.90;;;;;;5076242;28;20192;-66
2022/07/13 00:15:39;;;;;;;0.80;0.60;;;13.60;99.90;;;;;;5073606;28;20215;-67
2022/07/13 00:18:06;;;;;;;3.30;0.90;;;13.20;99.90;;;;;;5073397;28;20255;-65
2022/07/13 00:20:34;;;;;;;1.33;0.83;;;13.10;99.90;;;;;;5073329;28;20190;-66
2022/07/13 00:23:01;;;;;;;0.93;0.60;;;13.20;99.90;;;;;;5073443;28;20237;-66
2022/07/13 00:25:28;;;;;;;0.60;0.60;;;13.30;99.90;;;;;;5073408;28;20178;-66
2022/07/13 00:27:56;;;;;;;2.07;0.90;;;13.40;99.90;;;;;;5072672;28;20696;-67
2022/07/13 00:30:23;;;;;;;1.13;0.90;;;13.30;99.90;;;;;;5073158;28;20174;-66
2022/07/13 00:32:51;;;;;;;1.30;0.77;;;13.30;99.90;;;;;;5073182;28;20190;-66
2022/07/13 00:35:18;;;;;;;1.20;0.80;;;13.10;99.90;;;;;;5073010;28;20211;-66
2022/07/13 00:37:45;;;;;;;1.37;0.70;;;13.10;99.90;;;;;;5072985;28;20175;-66
2022/07/13 00:40:13;;;;;;;2.07;0.70;;;13.20;99.90;;;;;;5073076;28;20187;-66
2022/07/13 00:42:40;;;;;;;0.97;0.70;;;13.30;99.90;;;;;;5072977;28;20175;-67
2022/07/13 00:45:08;;;;;;;1.87;0.80;;;13.30;99.90;;;;;;5073055;28;20651;-66
2022/07/13 00:47:36;;;;;;;3.90;0.80;;;13.20;99.90;;;;;;5072843;28;20205;-66
2022/07/13 00:50:07;;;;;;;1.90;0.87;;;13.40;99.90;;;;;;5072934;28;20240;-67
2022/07/13 00:52:36;;;;;;;3.10;0.70;;;13.60;99.90;;;;;;5072784;28;20191;-66
2022/07/13 00:55:09;;;;;;;1.10;0.80;;;14.10;99.90;;;;;;5072815;28;20207;-66
2022/07/13 00:57:38;;;;;;;2.03;1.30;;;14.20;99.90;;;;;;5072665;28;20171;-67
2022/07/13 01:00:10;;;;;;;2.27;1.00;;;15.00;99.90;;;;;;5072709;28;20270;-67
2022/07/13 01:02:40;;;;;;;10.23;7.43;;;14.90;99.90;;;;;;5072505;28;20207;-67
2022/07/13 01:05:09;;;;;;;2.37;1.80;;;15.70;99.90;;;;;;5072067;28;20183;-66
2022/07/13 01:07:37;;;;;;;2.53;2.33;;;15.80;99.90;;;;;;5072538;28;20183;-66
2022/07/13 01:10:06;;;;;;;1.80;0.80;;;15.50;99.90;;;;;;5072563;28;20565;-66
2022/07/13 01:12:36;;;;;;;1.13;0.57;;;15.50;99.90;;;;;;5072388;28;20176;-66
2022/07/13 01:15:05;;;;;;;1.57;0.53;;;15.50;99.90;;;;;;5090105;28;20293;-68
2022/07/13 01:17:34;;;;;;;3.60;0.80;;;15.50;99.90;;;;;;5074525;28;20179;-67
2022/07/13 01:20:03;;;;;;;1.30;0.70;;;15.80;99.90;;;;;;5091902;28;20612;-67
2022/07/13 01:22:43;;;;;;;2.87;0.70;;;15.70;99.90;;;;;;5092273;28;20187;-67
2022/07/13 01:25:11;;;;;;;5.10;0.80;;;15.80;99.90;;;;;;5092290;28;20187;-67
2022/07/13 01:27:40;;;;;;;1.60;0.70;;;15.80;99.90;;;;;;5092131;28;20231;-65
2022/07/13 01:30:08;;;;;;;1.47;0.90;;;16.10;99.90;;;;;;5091596;28;20248;-67
2022/07/13 01:32:52;;;;;;;3.03;0.93;;;15.60;99.90;;;;;;5092265;28;20206;-66
2022/07/13 01:35:21;;;;;;;0.73;0.67;;;15.40;99.90;;;;;;5091702;28;20215;-67
2022/07/13 01:37:49;;;;;;;1.23;0.60;;;15.80;99.90;;;;;;5083038;28;20189;-66
2022/07/13 01:40:17;;;;;;;2.10;0.80;;;16.00;99.90;;;;;;5091284;28;20198;-66
2022/07/13 01:42:52;;;;;;;1.03;0.70;;;15.80;99.90;;;;;;5073698;28;20217;-66
2022/07/13 01:45:25;;;;;;;1.17;0.70;;;15.90;99.90;;;;;;5091401;28;20660;-67
2022/07/13 01:47:56;;;;;;;2.50;0.90;;;15.60;99.90;;;;;;5091207;28;20463;-66
2022/07/13 01:50:25;;;;;;;0.83;0.60;;;15.40;99.90;;;;;;5073885;28;20197;-67
2022/07/13 01:52:53;;;;;;;2.80;0.90;;;15.30;99.90;;;;;;5092019;28;20201;-67
2022/07/13 01:55:20;;;;;;;2.63;0.90;;;15.90;99.90;;;;;;5092055;28;20288;-67
2022/07/13 01:57:48;;;;;;;1.03;0.80;;;16.00;99.90;;;;;;5085867;28;20215;-66
2022/07/13 02:00:18;;;;;;;1.67;0.70;;;16.40;99.90;;;;;;5051814;28;20182;-66
2022/07/13 02:02:46;;;;;;;2.20;0.80;;;16.10;99.90;;;;;;5051827;28;20180;-66
2022/07/13 02:05:14;;;;;;;4.07;0.90;;;16.70;99.90;;;;;;5051693;28;20208;-67
2022/07/13 02:07:42;;;;;;;1.50;0.80;;;16.30;99.90;;;;;;5051825;28;20176;-67
2022/07/13 02:10:12;;;;;;;1.10;0.90;;;16.00;99.90;;;;;;5051730;28;20183;-68
2022/07/13 02:12:40;;;;;;;2.53;0.77;;;16.20;99.90;;;;;;5051786;28;20179;-67
2022/07/13 02:15:09;;;;;;;4.17;0.83;;;16.40;99.90;;;;;;5070283;28;20220;-67
2022/07/13 02:17:37;;;;;;;3.97;1.00;;;16.50;99.90;;;;;;5071817;28;20642;-67
2022/07/13 02:20:04;;;;;;;2.43;0.93;;;16.20;99.90;;;;;;5053327;28;20222;-67
2022/07/13 02:22:45;;;;;;;2.37;0.77;;;16.30;99.90;;;;;;5071820;28;20194;-67
2022/07/13 02:25:14;;;;;;;4.20;0.93;;;16.80;99.90;;;;;;5071897;28;20183;-68
2022/07/13 02:27:44;;;;;;;1.13;0.77;;;17.00;99.90;;;;;;5071415;28;20726;-67
2022/07/13 02:30:14;;;;;;;3.53;0.87;;;17.00;99.90;;;;;;5071790;28;20184;-66
2022/07/13 02:32:42;;;;;;;1.63;1.00;;;16.40;99.90;;;;;;5053526;28;20194;-66
2022/07/13 02:35:10;;;;;;;2.73;0.90;;;16.30;99.90;;;;;;5071266;28;20269;-66
2022/07/13 02:37:39;;;;;;;1.77;0.80;;;16.80;99.90;;;;;;5071386;28;20172;-67
2022/07/13 02:40:07;;;;;;;1.47;0.70;;;16.80;99.90;;;;;;5071503;28;20536;-66
2022/07/13 02:42:35;;;;;;;1.70;0.80;;;17.00;99.90;;;;;;5071428;28;20596;-67
2022/07/13 02:45:03;;;;;;;1.50;0.80;;;17.30;99.90;;;;;;5071440;28;20632;-66
2022/07/13 02:47:30;;;;;;;2.17;0.90;;;16.40;99.90;;;;;;5071463;28;20199;-65
2022/07/13 02:49:58;;;;;;;2.97;0.90;;;16.10;99.90;;;;;;5071899;28;20183;-66
2022/07/13 02:52:25;;;;;;;0.90;0.60;;;15.70;99.90;;;;;;5075074;28;20290;-66
2022/07/13 02:54:52;;;;;;;2.60;0.77;;;15.40;99.90;;;;;;5057043;28;20253;-67
2022/07/13 02:57:20;;;;;;;2.40;0.80;;;15.90;99.90;;;;;;5074904;28;20620;-67
2022/07/13 02:59:47;;;;;;;3.13;1.00;;;16.20;99.90;;;;;;5074960;28;20176;-67
2022/07/13 03:02:15;;;;;;;0.70;0.70;;;16.00;99.90;;;;;;5074925;28;20203;-67
2022/07/13 03:04:43;;;;;;;1.73;0.70;;;15.70;99.90;;;;;;5074950;28;20187;-68
2022/07/13 03:07:10;;;;;;;2.10;0.83;;;15.50;99.90;;;;;;5074870;28;20186;-68
2022/07/13 03:09:38;;;;;;;1.40;1.00;;;15.70;99.90;;;;;;5074809;28;20193;-66
2022/07/13 03:12:05;;;;;;;2.63;0.67;;;16.40;99.90;;;;;;5074813;28;20189;-67
2022/07/13 03:14:32;;;;;;;0.70;0.60;;;16.30;99.90;;;;;;5074561;28;20211;-65
2022/07/13 03:17:00;;;;;;;1.00;0.70;;;16.30;99.90;;;;;;5074562;28;20194;-67
2022/07/13 03:19:27;;;;;;;3.60;0.90;;;16.40;99.90;;;;;;5088757;28;20269;-67
2022/07/13 03:21:54;;;;;;;2.40;0.80;;;17.40;99.90;;;;;;5094691;28;20172;-66
2022/07/13 03:24:22;;;;;;;3.20;0.80;;;17.00;99.90;;;;;;5094814;28;20568;-67
2022/07/13 03:26:49;;;;;;;1.27;0.67;;;16.90;99.90;;;;;;5094442;28;20217;-67
2022/07/13 03:29:16;;;;;;;2.03;0.70;;;17.20;99.90;;;;;;5094317;28;20187;-66
2022/07/13 03:31:44;;;;;;;4.50;1.00;;;16.70;99.90;;;;;;5094746;28;20179;-67
2022/07/13 03:34:11;;;;;;;1.07;0.90;;;16.30;99.90;;;;;;5094416;28;20203;-67
2022/07/13 03:36:38;;;;;;;1.07;0.70;;;16.30;99.90;;;;;;5076533;28;20316;-67
2022/07/13 03:39:06;;;;;;;1.10;1.00;;;16.10;99.90;;;;;;5093753;28;20561;-66
2022/07/13 03:41:33;;;;;;;3.07;0.80;;;15.90;99.90;;;;;;5094484;28;20208;-66
2022/07/13 03:44:00;;;;;;;3.23;0.97;;;15.80;99.90;;;;;;5094475;28;20194;-66
2022/07/13 03:46:28;;;;;;;2.03;1.03;;;16.20;99.90;;;;;;5094386;28;20209;-67
2022/07/13 03:48:55;;;;;;;2.03;0.70;;;16.60;99.90;;;;;;5093678;28;20245;-67
2022/07/13 03:51:22;;;;;;;1.10;0.93;;;17.00;99.90;;;;;;5093861;28;20190;-67
2022/07/13 03:53:50;;;;;;;0.90;0.60;;;17.10;99.90;;;;;;5094257;28;20213;-67
2022/07/13 03:56:17;;;;;;;1.40;0.70;;;17.40;99.90;;;;;;5093815;28;20288;-67
2022/07/13 03:58:45;;;;;;;1.27;0.70;;;17.20;99.90;;;;;;5093620;28;20179;-67
2022/07/13 04:01:12;;;;;;;0.77;0.60;;;17.40;99.90;;;;;;5093646;28;20668;-67
2022/07/13 04:03:40;;;;;;;1.40;0.60;;;17.30;99.90;;;;;;5093120;28;20215;-67
2022/07/13 04:06:07;;;;;;;0.60;0.60;;;17.20;99.90;;;;;;5075750;28;20210;-67
2022/07/13 04:08:34;;;;;;;1.13;0.80;;;17.40;99.90;;;;;;5093648;28;20739;-67
2022/07/13 04:11:02;;;;;;;2.23;1.13;;;17.20;99.90;;;;;;5093723;28;20594;-67
2022/07/13 04:13:29;;;;;;;2.07;1.30;;;17.30;99.90;;;;;;5093726;28;20180;-68
2022/07/13 04:15:56;;;;;;;4.27;3.13;;;17.10;99.90;;;;;;5093566;28;20216;-68
2022/07/13 04:18:24;;;;;;;2.00;0.60;;;17.60;99.90;;;;;;5093236;28;20522;-67
2022/07/13 04:20:51;;;;;;;0.93;0.60;;;18.20;99.90;;;;;;5080956;28;20187;-67
2022/07/13 04:23:18;;;;;;;1.37;0.80;;;17.70;99.90;;;;;;5090328;28;20193;-67
2022/07/13 04:25:46;;;;;;;1.37;0.77;;;18.10;99.90;;;;;;5093426;28;20644;-68
2022/07/13 04:28:14;;;;;;;3.13;0.93;;;17.40;99.90;;;;;;5093367;28;20223;-67
2022/07/13 04:30:41;;;;;;;1.03;0.90;;;17.60;99.90;;;;;;5093308;28;20192;-67
2022/07/13 04:33:08;;;;;;;1.60;1.37;;;18.10;99.90;;;;;;5093414;28;20178;-67
2022/07/13 04:35:36;;;;;;;0.60;0.60;;;17.60;99.90;;;;;;5093280;28;20217;-67
2022/07/13 04:38:03;;;;;;;1.20;0.80;;;17.30;99.90;;;;;;5093192;28;20569;-66
2022/07/13 04:40:30;;;;;;;1.77;1.10;;;16.70;99.90;;;;;;5093198;28;20196;-67
2022/07/13 04:42:57;;;;;;;2.87;0.83;;;16.40;99.90;;;;;;5093193;28;20178;-65
2022/07/13 04:45:25;;;;;;;1.83;0.83;;;15.90;99.90;;;;;;5074454;28;20199;-66
2022/07/13 04:47:52;;;;;;;0.80;0.80;;;16.00;99.90;;;;;;5072954;28;20176;-67
2022/07/13 04:50:20;;;;;;;1.20;0.60;;;15.80;99.90;;;;;;5072747;28;20638;-68
2022/07/13 04:52:47;;;;;;;1.80;0.50;;;15.60;99.90;;;;;;5054877;28;20268;-67
2022/07/13 04:55:16;;;;;;;1.63;0.60;;;15.50;99.90;;;;;;5072800;28;20207;-67
2022/07/13 04:57:44;;;;;;;0.93;0.60;;;15.40;99.90;;;;;;5072318;28;20236;-65
2022/07/13 05:00:12;;;;;;;0.60;0.60;;;15.40;99.90;;;;;;5072715;28;20229;-67
2022/07/13 05:02:39;;;;;;;1.90;0.60;;;15.30;99.90;;;;;;5072615;28;20173;-67
2022/07/13 05:05:07;;;;;;;0.90;0.70;;;15.20;99.90;;;;;;5072526;28;20653;-67
2022/07/13 05:07:34;;;;;;;2.60;0.80;;;15.20;99.90;;;;;;5067896;28;20213;-66
2022/07/13 05:10:02;;;;;;;0.80;0.80;;;15.30;99.90;;;;;;5072410;28;20190;-66
2022/07/13 05:12:29;;;;;;;1.33;0.80;;;15.40;99.90;;;;;;5072460;28;20172;-67
2022/07/13 05:14:58;;;;;;;0.90;0.70;;;15.50;99.90;;;;;;5074269;28;20219;-67
2022/07/13 05:17:25;;;;;;;2.40;0.70;;;15.50;99.90;;;;;;5092660;28;20167;-68
2022/07/13 05:19:53;;;;;;;1.00;0.90;;;15.40;99.90;;;;;;5092598;28;20191;-69
2022/07/13 05:22:20;;;;;;;1.20;0.80;;;15.40;99.90;;;;;;5074751;28;20201;-68
2022/07/13 05:24:47;;;;;;;1.43;0.70;;;15.30;99.90;;;;;;5092458;28;20179;-67
2022/07/13 05:27:15;;;;;;;2.33;1.00;;;15.30;99.90;;;;;;5074271;28;20243;-66
2022/07/13 05:29:42;;;;;;;1.13;1.00;;;15.10;99.90;;;;;;5092285;28;20175;-68
2022/07/13 05:32:09;;;;;;;1.00;0.90;;;15.10;99.90;;;;;;5092627;28;20176;-68
2022/07/13 05:34:37;;;;;;;2.10;0.93;;;15.10;99.90;;;;;;5092204;28;20230;-66
2022/07/13 05:37:04;;;;;;;1.40;0.83;;;15.10;99.90;;;;;;5092158;28;20193;-65
2022/07/13 05:39:31;;;;;;;1.30;1.00;;;15.00;99.90;;;;;;5091952;28;20213;-67
2022/07/13 05:41:59;;;;;;;2.53;0.80;;;15.00;99.90;;;;;;5092137;28;20174;-68
2022/07/13 05:44:26;;;;;;;0.80;0.80;;;14.90;99.90;;;;;;5092195;28;20640;-68
2022/07/13 05:46:54;;;;;;;2.53;0.83;;;14.90;99.90;;;;;;5092365;28;20171;-66
2022/07/13 05:49:22;;;;;;;1.30;1.00;;;14.80;99.90;;;;;;5092031;28;20189;-67
2022/07/13 05:51:49;;;;;;;1.40;0.73;;;14.60;99.90;;;;;;5073971;28;20236;-68
2022/07/13 05:54:16;;;;;;;2.00;1.40;;;14.60;99.90;;;;;;5092058;28;20205;-66
2022/07/13 05:56:44;;;;;;;1.17;1.03;;;14.50;99.90;;;;;;5092000;28;20186;-67
2022/07/13 05:59:11;;;;;;;2.67;1.00;;;14.60;99.90;;;;;;5091368;28;20193;-66
2022/07/13 06:01:38;;;;;;;0.83;0.77;;;14.60;99.90;;;;;;5092047;28;20178;-65
2022/07/13 06:04:05;;;;;;;1.47;1.00;;;14.50;99.90;;;;;;5091838;28;20193;-67
2022/07/13 06:06:33;;;;;;;1.30;1.20;;;14.50;99.90;;;;;;5091442;28;20270;-68
2022/07/13 06:09:00;;;;;;;1.30;0.83;;;14.40;99.90;;;;;;5091647;28;20186;-67
2022/07/13 06:11:27;;;;;;;1.43;0.90;;;14.40;99.90;;;;;;5091958;28;20175;-67
2022/07/13 06:13:55;;;;;;;1.43;1.00;;;14.40;99.90;;;;;;5091761;28;20182;-67
2022/07/13 06:16:22;;;;;;;2.37;1.00;;;14.40;99.90;;;;;;5063538;28;20248;-67
2022/07/13 06:18:49;;;;;;;1.53;1.00;;;14.30;99.90;;;;;;5091799;28;20185;-68
2022/07/13 06:21:17;;;;;;;1.10;1.00;;;14.30;99.90;;;;;;5084598;28;20641;-67
2022/07/13 06:23:44;;;;;;;1.20;0.90;;;14.20;99.90;;;;;;5071770;28;20568;-67
2022/07/13 06:26:11;;;;;;;1.17;0.70;;;14.20;99.90;;;;;;5074246;28;20180;-67
2022/07/13 06:28:39;;;;;;;2.33;0.93;;;14.20;99.90;;;;;;5086240;28;20229;-66
2022/07/13 06:31:06;;;;;;;1.53;1.10;;;14.10;99.90;;;;;;5095873;28;20287;-67
2022/07/13 06:33:35;;;;;;;0.80;0.80;;;14.10;99.90;;;;;;5095778;28;20265;-67
2022/07/13 06:36:03;;;;;;;1.73;0.90;;;14.00;99.90;;;;;;5077092;28;20225;-66
2022/07/13 06:38:30;;;;;;;0.90;0.90;;;14.10;99.90;;;;;;5095724;28;20185;-67
2022/07/13 06:40:57;;;;;;;0.97;0.90;;;14.00;99.90;;;;;;5096200;28;20223;-68
2022/07/13 06:43:25;;;;;;;1.03;0.93;;;13.90;99.90;;;;;;5095966;28;20175;-66
2022/07/13 06:45:52;;;;;;;1.20;1.00;;;13.90;99.90;;;;;;5094622;28;20186;-67
2022/07/13 06:48:20;;;;;;;2.30;1.10;;;13.90;99.90;;;;;;5095060;28;20175;-67
2022/07/13 06:50:47;;;;;;;1.07;0.97;;;13.90;99.90;;;;;;5095623;28;20671;-67
2022/07/13 06:53:14;;;;;;;0.90;0.80;;;13.90;99.90;;;;;;5095534;28;20179;-68
2022/07/13 06:55:42;;;;;;;1.60;1.10;;;13.80;99.90;;;;;;5076941;28;20225;-68
2022/07/13 06:58:09;;;;;;;4.00;1.40;;;13.70;99.90;;;;;;5095245;28;20170;-68
2022/07/13 07:00:36;;;;;;;2.57;1.50;;;13.70;99.90;;;;;;5095223;28;20174;-67
2022/07/13 07:03:04;;;;;;;2.13;1.50;;;13.70;99.90;;;;;;5094494;28;20587;-67
2022/07/13 07:05:31;;;;;;;4.93;1.53;;;13.70;99.90;;;;;;5095111;28;20217;-67
2022/07/13 07:08:00;;;;;;;1.47;1.37;;;13.70;99.90;;;;;;5076845;28;20200;-68
2022/07/13 07:10:27;;;;;;;3.27;1.00;;;13.70;99.90;;;;;;5094817;28;20190;-67
2022/07/13 07:12:55;;;;;;;4.20;1.20;;;13.60;99.90;;;;;;5094745;28;20190;-66
2022/07/13 07:15:23;;;;;;;2.37;1.43;;;13.70;99.90;;;;;;5088811;28;20221;-68
2022/07/13 07:17:50;;;;;;;2.57;1.23;;;13.60;99.90;;;;;;5090208;28;20623;-67
2022/07/13 07:20:18;;;;;;;2.07;1.50;;;13.50;99.90;;;;;;5094922;28;20576;-67
2022/07/13 07:22:46;;;;;;;1.83;1.23;;;13.50;99.90;;;;;;5094357;28;20170;-67
2022/07/13 07:25:15;;;;;;;2.00;1.43;;;13.50;99.90;;;;;;5094617;28;20731;-67
2022/07/13 07:27:43;;;;;;;1.87;1.33;;;13.40;99.90;;;;;;5094123;28;20226;-67
2022/07/13 07:30:10;;;;;;;2.63;1.10;;;13.50;99.90;;;;;;5094753;28;20182;-66
2022/07/13 07:32:39;;;;;;;1.80;1.13;;;13.40;99.90;;;;;;5094197;28;20647;-66
2022/07/13 07:35:07;;;;;;;3.07;1.23;;;13.40;99.90;;;;;;5094306;28;20226;-67
2022/07/13 07:37:37;;;;;;;1.20;1.03;;;13.40;99.90;;;;;;5093211;28;20181;-66
2022/07/13 07:40:05;;;;;;;1.13;0.93;;;13.30;99.90;;;;;;5075747;28;20625;-67
2022/07/13 07:42:32;;;;;;;1.37;0.90;;;13.40;99.90;;;;;;5095684;28;20681;-68
2022/07/13 07:44:59;;;;;;;0.90;0.90;;;13.30;99.90;;;;;;5095079;28;20182;-68
2022/07/13 07:47:27;;;;;;;1.27;1.13;;;13.40;99.90;;;;;;5076955;28;20190;-68
2022/07/13 07:49:54;;;;;;;2.50;1.13;;;13.30;99.90;;;;;;5094077;28;20558;-67
2022/07/13 07:52:22;;;;;;;1.10;0.93;;;13.20;99.90;;;;;;5079476;28;20189;-68
2022/07/13 07:54:49;;;;;;;1.70;0.90;;;13.20;99.90;;;;;;5095070;28;20302;-67
2022/07/13 07:57:17;;;;;;;1.27;0.90;;;13.20;99.90;;;;;;5094974;28;20183;-65
2022/07/13 07:59:44;;;;;;;1.23;0.97;;;13.20;99.90;;;;;;5093563;28;20208;-66
2022/07/13 08:02:12;;;;;;;1.23;1.00;;;13.10;99.90;;;;;;5092250;28;20202;-68
2022/07/13 08:04:40;;;;;;;2.33;1.20;;;13.10;99.90;;;;;;5096428;28;20184;-69
2022/07/13 08:07:07;;;;;;;1.00;0.90;;;13.00;99.90;;;;;;5095799;28;20518;-68
2022/07/13 08:09:35;;;;;;;1.67;1.03;;;13.00;99.90;;;;;;5095689;28;20186;-68
2022/07/13 08:12:04;;;;;;;1.63;1.43;;;13.00;99.90;;;;;;5095364;28;20180;-67
2022/07/13 08:14:32;;;;;;;1.20;1.10;;;13.00;99.90;;;;;;5076888;28;20201;-67
2022/07/13 08:16:59;;;;;;;4.93;3.20;;;13.00;99.90;;;;;;5094971;28;20685;-67
2022/07/13 08:19:27;;;;;;;2.03;1.40;;;12.90;99.90;;;;;;5094950;28;20170;-67
2022/07/13 08:21:54;;;;;;;1.33;1.23;;;12.90;99.90;;;;;;5095126;28;20650;-67
2022/07/13 08:24:21;;;;;;;1.93;1.23;;;13.00;99.90;;;;;;5094964;28;20255;-67
2022/07/13 08:26:51;;;;;;;2.03;1.50;;;12.90;99.90;;;;;;5094664;28;20244;-67
2022/07/13 08:29:18;;;;;;;1.90;1.37;;;12.80;99.90;;;;;;5094921;28;20176;-67
2022/07/13 08:31:45;;;;;;;1.93;1.47;;;12.80;99.90;;;;;;5094931;28;20192;-68
2022/07/13 08:39:44;;;;;;;1.20;1.10;;;12.90;99.90;;;;;;5094823;28;20592;-67
2022/07/13 08:42:14;;;;;;;1.77;1.60;;;12.90;99.90;;;;;;5094704;28;20174;-67
2022/07/13 08:44:41;;;;;;;1.77;1.33;;;12.90;99.90;;;;;;5094606;28;20201;-67
2022/07/13 08:47:11;;;;;;;1.73;1.43;;;12.90;99.90;;;;;;5094382;28;20168;-67
2022/07/13 08:49:38;;;;;;;1.47;1.20;;;13.00;99.90;;;;;;5094202;28;20171;-67
2022/07/13 08:52:06;;;;;;;1.50;1.40;;;12.90;99.90;;;;;;5094350;28;20582;-67
2022/07/13 08:54:34;;;;;;;7.00;1.50;;;13.00;99.90;;;;;;5094241;28;20218;-67
2022/07/13 08:57:01;;;;;;;1.17;1.07;;;13.00;99.90;;;;;;5094212;28;20173;-67
2022/07/13 08:59:29;;;;;;;1.50;1.37;;;12.90;99.90;;;;;;5094196;28;20180;-68
2022/07/13 09:01:57;;;;;;;2.33;1.40;;;12.80;99.90;;;;;;5094269;28;20192;-68
2022/07/13 09:04:26;;;;;;;3.90;1.43;;;12.80;99.90;;;;;;5094192;28;20576;-67
2022/07/13 09:06:54;;;;;;;1.50;1.40;;;12.80;99.90;;;;;;5094283;28;20180;-67
2022/07/13 09:09:31;;;;;;;1.80;1.50;;;12.80;99.90;;;;;;5094179;28;20174;-68
2022/07/13 09:12:32;;;;;;;1.77;1.50;;;12.80;99.90;;;;;;5091163;28;20183;-68
2022/07/13 09:15:00;;;;;;;1.90;1.67;;;12.80;99.90;;;;;;5039203;28;20260;-67
2022/07/13 09:17:42;;;;;;;2.07;1.50;;;12.80;99.90;;;;;;5075059;28;20645;-67
2022/07/13 09:20:18;;;;;;;1.90;1.60;;;12.80;99.90;;;;;;5094211;28;20540;-67
2022/07/13 09:22:53;;;;;;;1.83;1.50;;;12.80;99.90;;;;;;5093381;28;20230;-66
2022/07/13 09:25:37;;;;;;;3.07;1.93;;;12.80;99.90;;;;;;5094159;28;20174;-68
2022/07/13 09:28:16;;;;;;;2.20;1.73;;;12.70;99.90;;;;;;5093697;28;20315;-67
2022/07/13 09:30:45;;;;;;;3.13;1.70;;;12.70;99.90;;;;;;5093876;28;20179;-66
2022/07/13 09:33:13;;;;;;;1.90;1.50;;;12.80;99.90;;;;;;5093621;28;20193;-67
2022/07/13 09:35:51;;;;;;;1.87;1.30;;;12.70;99.90;;;;;;5093650;28;20245;-68
2022/07/13 09:38:28;;;;;;;3.50;1.90;;;12.60;99.90;;;;;;5093327;28;20189;-67
2022/07/13 09:40:57;;;;;;;2.70;1.80;;;12.60;99.90;;;;;;5093461;28;20258;-66
2022/07/13 09:46:09;;;;;;;3.00;2.10;;;12.50;99.90;;;;;;5093682;28;20181;-67
2022/07/13 09:48:38;;;;;;;3.30;2.13;;;12.50;99.90;;;;;;5093509;28;20649;-65
2022/07/13 09:51:07;;;;;;;2.37;1.93;;;12.50;99.90;;;;;;5093386;28;20275;-66
2022/07/13 09:53:37;;;;;;;3.77;2.43;;;12.50;99.90;;;;;;5093559;28;20268;-67
2022/07/13 09:56:06;;;;;;;2.30;1.93;;;12.50;99.90;;;;;;5093332;28;20213;-67
2022/07/13 09:58:39;;;;;;;3.37;2.20;;;12.50;99.90;;;;;;5093464;28;20216;-67
2022/07/13 10:01:11;;;;;;;4.63;2.87;;;12.50;99.90;;;;;;5092738;28;20216;-66
2022/07/13 10:03:40;;;;;;;7.67;3.27;;;12.50;99.90;;;;;;5092815;28;20211;-66
2022/07/13 10:06:08;;;;;;;3.80;2.90;;;12.50;99.90;;;;;;5082731;28;20193;-67
2022/07/13 10:08:38;;;;;;;4.67;2.77;;;12.50;99.90;;;;;;5072949;28;20276;-67
2022/07/13 10:11:06;;;;;;;4.27;2.93;;;12.50;99.90;;;;;;5073155;28;20169;-67
2022/07/13 10:13:36;;;;;;;3.17;2.50;;;12.40;99.90;;;;;;5073010;28;20224;-67
2022/07/13 10:16:04;;;;;;;2.90;2.00;;;12.40;99.90;;;;;;5072738;28;20570;-67
2022/07/13 10:18:39;;;;;;;3.87;2.10;;;12.30;99.90;;;;;;5087694;28;20636;-66
2022/07/13 10:21:25;;;;;;;2.53;2.00;;;12.30;99.90;;;;;;5074807;28;20184;-68
2022/07/13 10:23:53;;;;;;;2.13;1.83;;;12.30;99.90;;;;;;5093093;28;20170;-67
2022/07/13 10:26:25;;;;;;;2.57;2.10;;;12.20;99.90;;;;;;5092746;28;20177;-67
2022/07/13 10:29:02;;;;;;;4.87;2.80;;;12.20;99.90;;;;;;5092692;28;20243;-67
2022/07/13 10:31:36;;;;;;;3.27;2.63;;;12.20;99.90;;;;;;5092858;28;20186;-66
2022/07/13 10:34:05;;;;;;;4.23;2.77;;;12.10;99.90;;;;;;5074751;28;20649;-66
2022/07/13 10:36:53;;;;;;;4.20;2.97;;;12.00;99.90;;;;;;5092569;28;20296;-68
2022/07/13 10:39:22;;;;;;;3.60;2.57;;;12.00;99.90;;;;;;5052782;28;20183;-67
2022/07/13 10:42:02;;;;;;;4.17;2.80;;;12.00;99.90;;;;;;5084801;28;20212;-67
2022/07/13 10:44:37;;;;;;;4.60;2.93;;;11.90;99.90;;;;;;5092845;28;20258;-66
2022/07/13 10:47:12;;;;;;;3.57;2.63;;;11.90;99.90;;;;;;5092350;28;20221;-68
2022/07/13 10:49:52;;;;;;;5.13;2.87;;;11.80;99.90;;;;;;5092911;28;20225;-67
2022/07/13 10:52:26;;;;;;;5.30;3.07;;;11.90;99.90;;;;;;5092983;28;20185;-66
2022/07/13 10:55:07;;;;;;;3.80;2.83;;;11.80;99.90;;;;;;5092712;28;20238;-67
2022/07/13 10:57:37;;;;;;;4.47;2.97;;;11.80;99.90;;;;;;5092337;28;20260;-66
2022/07/13 11:00:28;;;;;;;3.47;2.67;;;11.80;99.90;;;;;;5092670;28;20268;-66
2022/07/13 11:03:07;;;;;;;4.43;2.73;;;11.70;99.90;;;;;;5092723;28;20186;-66
2022/07/13 11:05:36;;;;;;;2.90;2.40;;;11.60;99.90;;;;;;5093034;28;20270;-68
2022/07/13 11:08:14;;;;;;;3.73;2.67;;;11.60;99.90;;;;;;5092393;28;20178;-67
2022/07/13 11:10:42;;;;;;;4.87;3.23;;;11.60;99.90;;;;;;5074480;28;20212;-67
2022/07/13 11:13:15;;;;;;;3.07;2.67;;;11.60;99.90;;;;;;5096836;28;20180;-67
2022/07/13 11:15:52;;;;;;;3.30;2.47;;;11.60;99.90;;;;;;5096042;28;20211;-68
2022/07/13 11:18:23;;;;;;;2.77;2.43;;;11.70;99.90;;;;;;5094833;28;20187;-66
2022/07/13 11:20:59;;;;;;;2.93;2.30;;;11.80;99.90;;;;;;5077330;28;20176;-66
2022/07/13 11:26:51;;;;;;;1.93;1.73;;;11.90;99.90;;;;;;5095420;28;20234;-67
2022/07/13 11:29:58;;;;;;;2.03;1.83;;;11.90;99.90;;;;;;5055547;28;20180;-67
2022/07/13 11:32:27;;;;;;;2.63;1.93;;;11.90;99.90;;;;;;5055752;28;20216;-68
2022/07/13 11:34:55;;;;;;;2.30;2.10;;;11.90;99.90;;;;;;5055638;28;20211;-66
2022/07/13 11:37:26;;;;;;;3.03;2.50;;;11.80;99.90;;;;;;5066010;28;20183;-67
2022/07/13 11:39:55;;;;;;;4.93;2.83;;;11.80;99.90;;;;;;5077574;28;20697;-68
2022/07/13 11:42:23;;;;;;;4.47;3.40;;;11.80;99.90;;;;;;5095515;28;20270;-67
2022/07/13 11:44:52;;;;;;;5.67;3.80;;;11.80;99.90;;;;;;5095460;28;20221;-66
2022/07/13 11:47:21;;;;;;;10.00;6.07;;;11.80;99.90;;;;;;5095337;28;20211;-68
2022/07/13 11:49:50;;;;;;;6.17;4.07;;;11.80;99.90;;;;;;5095827;28;20203;-66
2022/07/13 11:52:29;;;;;;;6.10;4.20;;;11.80;99.90;;;;;;5095415;28;20542;-67
2022/07/13 11:54:59;;;;;;;7.80;4.70;;;11.80;99.90;;;;;;5095203;28;20246;-66
2022/07/13 11:57:28;;;;;;;3.47;2.60;;;11.70;99.90;;;;;;5095083;28;20179;-67
2022/07/13 12:00:01;;;;;;;2.97;2.10;;;11.60;99.90;;;;;;5077250;28;20558;-67
2022/07/13 12:02:29;;;;;;;3.00;2.23;;;11.60;99.90;;;;;;5095583;28;20220;-66
2022/07/13 12:04:57;;;;;;;3.17;2.10;;;11.60;99.90;;;;;;5095377;28;20168;-66
2022/07/13 12:07:30;;;;;;;2.10;1.90;;;11.60;99.90;;;;;;5094917;28;20578;-65
2022/07/13 12:10:06;;;;;;;3.33;2.20;;;11.60;99.90;;;;;;5095536;28;20164;-67
2022/07/13 12:12:40;;;;;;;2.83;2.13;;;11.60;99.90;;;;;;5094805;28;20198;-67
2022/07/13 12:15:09;;;;;;;2.60;2.07;;;11.60;99.90;;;;;;5094658;28;20572;-67
2022/07/13 12:17:50;;;;;;;2.53;2.20;;;11.50;99.90;;;;;;5076319;28;20530;-67
2022/07/13 12:20:24;;;;;;;2.07;1.87;;;11.50;99.90;;;;;;5077073;28;20706;-67
2022/07/13 12:22:59;;;;;;;2.27;2.00;;;11.50;99.90;;;;;;5094519;28;20548;-67
2022/07/13 12:25:35;;;;;;;3.27;2.00;;;11.50;99.90;;;;;;5094882;28;20190;-68
2022/07/13 12:28:06;;;;;;;2.37;1.80;;;11.60;99.90;;;;;;5094486;28;20226;-66
2022/07/13 12:30:35;;;;;;;3.33;1.67;;;11.50;99.90;;;;;;5094511;28;20179;-66
2022/07/13 12:33:10;;;;;;;2.10;1.90;;;11.50;99.90;;;;;;5094877;28;20179;-67
2022/07/13 12:35:40;;;;;;;2.20;2.00;;;11.50;99.90;;;;;;5094647;28;20209;-67
2022/07/13 12:38:12;;;;;;;3.07;1.80;;;11.50;99.90;;;;;;5094401;28;20589;-67
2022/07/13 12:41:01;;;;;;;2.70;1.70;;;11.70;99.90;;;;;;5126793;27;20590;-64
2022/07/13 12:43:30;;;;;;;1.97;1.50;;;11.50;99.90;;;;;;5111382;28;20174;-65
2022/07/13 12:46:03;;;;;;;1.73;1.40;;;11.50;99.90;;;;;;5111195;28;20178;-66
2022/07/13 12:48:36;;;;;;;3.63;1.70;;;11.50;99.90;;;;;;5111102;28;20175;-66
2022/07/13 12:51:13;;;;;;;2.10;1.77;;;11.60;99.90;;;;;;5093126;28;20179;-66
2022/07/13 12:53:53;;;;;;;1.70;1.60;;;11.50;99.90;;;;;;5111303;28;20191;-68
2022/07/13 12:56:48;;;;;;;1.63;1.50;;;11.50;99.90;;;;;;5111046;28;20182;-66
2022/07/13 12:59:23;;;;;;;1.60;1.50;;;11.40;99.90;;;;;;5072620;28;20218;-66
2022/07/13 13:01:50;;;;;;;3.70;1.40;;;11.40;99.90;;;;;;5090860;28;20179;-66
2022/07/13 13:04:18;;;;;;;1.60;1.50;;;11.40;99.90;;;;;;5109461;28;20546;-65
2022/07/13 13:06:47;;;;;;;1.93;1.73;;;11.40;99.90;;;;;;5110612;28;20198;-66
2022/07/13 13:09:17;;;;;;;2.30;1.80;;;11.40;99.90;;;;;;5110767;28;20633;-65
2022/07/13 13:11:47;;;;;;;1.60;1.50;;;11.40;99.90;;;;;;5110630;28;20599;-66